createdAt,value
2018-07-21T00:00:46.737Z,46.40
2018-07-21T00:01:46.740Z,46.20
2018-07-21T00:02:46.777Z,46.49
2018-07-21T00:03:46.802Z,46.49
2018-07-21T00:04:46.819Z,46.40
2018-07-21T00:05:46.799Z,46.69
2018-07-21T00:06:46.857Z,46.69
2018-07-21T00:07:46.852Z,46.78
2018-07-21T00:08:46.879Z,46.69
2018-07-21T00:09:46.904Z,46.78
2018-07-21T00:10:46.864Z,46.59
2018-07-21T00:11:46.940Z,46.59
2018-07-21T00:12:46.907Z,46.97
2018-07-21T00:13:46.911Z,47.36
2018-07-21T00:14:46.991Z,47.94
2018-07-21T00:15:46.956Z,47.36
2018-07-21T00:16:46.966Z,46.97
2018-07-21T00:17:46.958Z,47.17
2018-07-21T00:18:46.963Z,47.75
2018-07-21T00:19:47.061Z,47.53
2018-07-21T00:20:47.003Z,47.63
2018-07-21T00:21:47.017Z,48.52
2018-07-21T00:22:47.086Z,48.11
2018-07-21T00:23:47.108Z,48.21
2018-07-21T00:24:47.105Z,48.21
2018-07-21T00:25:47.103Z,48.21
2018-07-21T00:26:47.110Z,48.69
2018-07-21T00:27:47.132Z,48.49
2018-07-21T00:28:47.169Z,48.59
2018-07-21T00:29:47.181Z,48.88
2018-07-21T00:30:47.157Z,48.21
2018-07-21T00:31:47.154Z,48.79
2018-07-21T00:32:47.172Z,48.88
2018-07-21T00:33:47.234Z,49.17
2018-07-21T00:34:47.228Z,49.55
2018-07-21T00:35:47.283Z,49.29
2018-07-21T00:36:47.240Z,49.07
2018-07-21T00:37:47.221Z,48.97
2018-07-21T00:38:47.252Z,49.07
2018-07-21T00:39:47.313Z,49.07
2018-07-21T00:40:47.334Z,49.55
2018-07-21T00:41:47.321Z,49.27
2018-07-21T00:42:47.299Z,49.65
2018-07-21T00:43:47.321Z,49.75
2018-07-21T00:44:47.338Z,49.27
2018-07-21T00:45:47.436Z,49.37
2018-07-21T00:46:47.393Z,49.37
2018-07-21T00:47:47.375Z,49.17
2018-07-21T00:48:47.372Z,50.04
2018-07-21T00:49:47.381Z,49.37
2018-07-21T00:50:47.454Z,49.37
2018-07-21T00:51:47.482Z,49.75
2018-07-21T00:52:47.493Z,49.46
2018-07-21T00:53:47.470Z,49.55
2018-07-21T00:54:47.503Z,49.65
2018-07-21T00:55:47.524Z,49.37
2018-07-21T00:56:47.524Z,49.17
2018-07-21T00:57:47.563Z,49.07
2018-07-21T00:58:47.520Z,49.46
2018-07-21T00:59:47.557Z,49.75
2018-07-21T01:00:47.554Z,49.75
2018-07-21T01:01:47.646Z,49.84
2018-07-21T01:02:47.572Z,49.84
2018-07-21T01:03:47.625Z,50.04
2018-07-21T01:04:47.569Z,49.55
2018-07-21T01:05:47.589Z,49.94
2018-07-21T01:06:47.671Z,49.27
2018-07-21T01:07:47.693Z,49.46
2018-07-21T01:08:47.684Z,49.94
2018-07-21T01:09:47.653Z,49.75
2018-07-21T01:10:47.696Z,50.13
2018-07-21T01:11:47.699Z,49.55
2018-07-21T01:12:47.715Z,49.75
2018-07-21T01:13:47.764Z,49.46
2018-07-21T01:14:47.733Z,49.37
2018-07-21T01:15:47.750Z,49.84
2018-07-21T01:16:47.757Z,49.65
2018-07-21T01:17:47.788Z,49.55
2018-07-21T01:18:47.815Z,49.63
2018-07-21T01:19:47.794Z,50.01
2018-07-21T01:20:47.819Z,50.01
2018-07-21T01:21:47.851Z,50.11
2018-07-21T01:22:47.874Z,49.53
2018-07-21T01:23:47.862Z,50.11
2018-07-21T01:24:47.862Z,49.73
2018-07-21T01:25:47.860Z,50.21
2018-07-21T01:26:47.898Z,49.91
2018-07-21T01:27:47.916Z,49.91
2018-07-21T01:28:47.936Z,49.73
2018-07-21T01:29:47.939Z,50.01
2018-07-21T01:30:47.949Z,50.30
2018-07-21T01:31:47.976Z,50.49
2018-07-21T01:32:48.033Z,50.49
2018-07-21T01:33:48.036Z,50.59
2018-07-21T01:34:48.004Z,50.49
2018-07-21T01:35:48.013Z,50.49
2018-07-21T01:36:48.008Z,50.88
2018-07-21T01:37:48.022Z,50.59
2018-07-21T01:38:48.088Z,50.88
2018-07-21T01:39:48.086Z,50.69
2018-07-21T01:40:48.100Z,50.59
2018-07-21T01:41:48.171Z,50.69
2018-07-21T01:42:48.120Z,50.59
2018-07-21T01:43:48.110Z,50.49
2018-07-21T01:44:48.118Z,50.49
2018-07-21T01:45:48.200Z,50.78
2018-07-21T01:46:48.159Z,50.78
2018-07-21T01:47:48.170Z,50.69
2018-07-21T01:48:48.273Z,50.49
2018-07-21T01:49:48.171Z,50.98
2018-07-21T01:50:48.299Z,50.49
2018-07-21T01:51:48.213Z,50.98
2018-07-21T01:52:48.241Z,50.78
2018-07-21T01:53:48.227Z,50.49
2018-07-21T01:54:48.225Z,50.49
2018-07-21T01:55:48.377Z,50.59
2018-07-21T01:56:48.311Z,51.07
2018-07-21T01:57:48.299Z,51.65
2018-07-21T01:58:48.313Z,50.88
2018-07-21T01:59:48.309Z,50.59
2018-07-21T02:00:48.390Z,51.07
2018-07-21T02:01:48.386Z,51.56
2018-07-21T02:02:48.363Z,51.46
2018-07-21T02:03:48.390Z,51.48
2018-07-21T02:04:48.374Z,51.26
2018-07-21T02:05:48.462Z,50.78
2018-07-21T02:06:48.484Z,51.07
2018-07-21T02:07:48.405Z,51.46
2018-07-21T02:08:48.440Z,51.68
2018-07-21T02:09:48.485Z,51.77
2018-07-21T02:10:48.477Z,51.39
2018-07-21T02:11:48.523Z,51.07
2018-07-21T02:12:48.479Z,50.81
2018-07-21T02:13:48.493Z,51.48
2018-07-21T02:14:48.518Z,51.29
2018-07-21T02:15:48.554Z,51.29
2018-07-21T02:16:48.583Z,51.68
2018-07-21T02:17:48.595Z,51.29
2018-07-21T02:18:48.537Z,51.58
2018-07-21T02:19:48.601Z,51.68
2018-07-21T02:20:48.585Z,50.90
2018-07-21T02:21:48.614Z,50.62
2018-07-21T02:22:48.669Z,50.42
2018-07-21T02:23:48.666Z,50.52
2018-07-21T02:24:48.646Z,50.32
2018-07-21T02:25:48.659Z,51.68
2018-07-21T02:26:48.660Z,51.29
2018-07-21T02:27:48.737Z,51.58
2018-07-21T02:28:48.760Z,51.39
2018-07-21T02:29:48.733Z,51.10
2018-07-21T02:30:48.770Z,51.00
2018-07-21T02:31:48.743Z,50.62
2018-07-21T02:32:48.756Z,51.39
2018-07-21T02:33:48.791Z,50.42
2018-07-21T02:34:48.799Z,50.52
2018-07-21T02:35:48.799Z,50.81
2018-07-21T02:36:48.771Z,50.42
2018-07-21T02:37:48.852Z,50.52
2018-07-21T02:38:48.817Z,50.62
2018-07-21T02:39:48.875Z,50.49
2018-07-21T02:40:48.841Z,50.59
2018-07-21T02:41:48.937Z,50.88
2018-07-21T02:42:48.874Z,50.78
2018-07-21T02:43:48.911Z,50.90
2018-07-21T02:44:48.934Z,50.98
2018-07-21T02:45:48.934Z,51.36
2018-07-21T02:46:48.970Z,51.75
2018-07-21T02:47:49.019Z,51.48
2018-07-21T02:48:48.995Z,51.87
2018-07-21T02:49:48.954Z,51.58
2018-07-21T02:50:49.040Z,51.58
2018-07-21T02:51:49.017Z,51.68
2018-07-21T02:52:49.010Z,51.97
2018-07-21T02:53:49.038Z,51.87
2018-07-21T02:54:49.097Z,51.48
2018-07-21T02:55:49.141Z,51.58
2018-07-21T02:56:49.092Z,51.29
2018-07-21T02:57:49.139Z,51.29
2018-07-21T02:58:49.115Z,51.58
2018-07-21T02:59:49.103Z,51.48
2018-07-21T03:00:49.115Z,51.29
2018-07-21T03:01:49.131Z,51.65
2018-07-21T03:02:49.190Z,51.46
2018-07-21T03:03:49.154Z,51.58
2018-07-21T03:04:49.185Z,51.58
2018-07-21T03:05:49.217Z,51.39
2018-07-21T03:06:49.346Z,51.48
2018-07-21T03:07:49.199Z,51.58
2018-07-21T03:08:49.244Z,51.68
2018-07-21T03:09:49.453Z,51.39
2018-07-21T03:10:49.243Z,51.29
2018-07-21T03:11:52.588Z,51.58
2018-07-21T03:12:49.403Z,51.48
2018-07-21T03:13:49.284Z,51.58
2018-07-21T03:14:49.277Z,51.87
2018-07-21T03:15:49.341Z,51.87
2018-07-21T03:16:49.333Z,51.29
2018-07-21T03:17:49.403Z,51.39
2018-07-21T03:18:49.348Z,51.58
2018-07-21T03:19:49.373Z,51.97
2018-07-21T03:20:49.372Z,52.16
2018-07-21T03:21:49.377Z,52.55
2018-07-21T03:22:49.400Z,51.68
2018-07-21T03:23:49.427Z,51.77
2018-07-21T03:24:49.470Z,51.97
2018-07-21T03:25:49.438Z,52.25
2018-07-21T03:26:49.462Z,51.87
2018-07-21T03:27:49.890Z,51.39
2018-07-21T03:28:49.488Z,51.77
2018-07-21T03:29:49.501Z,52.73
2018-07-21T03:30:49.537Z,52.93
2018-07-21T03:31:49.553Z,52.35
2018-07-21T03:32:49.617Z,52.35
2018-07-21T03:33:49.606Z,52.06
2018-07-21T03:34:49.593Z,51.36
2018-07-21T03:35:49.787Z,51.94
2018-07-21T03:36:49.634Z,51.84
2018-07-21T03:37:49.616Z,51.58
2018-07-21T03:38:49.693Z,52.55
2018-07-21T03:39:49.757Z,52.55
2018-07-21T03:40:49.760Z,52.93
2018-07-21T03:41:49.675Z,52.06
2018-07-21T03:42:49.793Z,53.03
2018-07-21T03:43:49.840Z,52.73
2018-07-21T03:44:49.723Z,52.55
2018-07-21T03:45:49.840Z,52.55
2018-07-21T03:46:49.726Z,52.83
2018-07-21T03:47:49.740Z,52.64
2018-07-21T03:48:49.735Z,52.93
2018-07-21T03:49:49.771Z,52.06
2018-07-21T03:50:49.766Z,52.06
2018-07-21T03:51:49.811Z,52.73
2018-07-21T03:52:49.842Z,52.55
2018-07-21T03:53:49.833Z,52.25
2018-07-21T03:54:49.819Z,52.35
2018-07-21T03:55:49.850Z,51.87
2018-07-21T03:56:49.882Z,52.55
2018-07-21T03:57:49.973Z,52.73
2018-07-21T03:58:49.883Z,52.93
2018-07-21T03:59:49.877Z,52.35
2018-07-21T04:00:49.918Z,52.45
2018-07-21T04:01:49.949Z,52.45
2018-07-21T04:02:49.928Z,52.93
2018-07-21T04:03:50.002Z,52.25
2018-07-21T04:04:49.956Z,52.16
2018-07-21T04:05:49.948Z,51.68
2018-07-21T04:06:50.002Z,51.48
2018-07-21T04:07:50.000Z,51.48
2018-07-21T04:08:50.182Z,51.39
2018-07-21T04:09:50.023Z,51.68
2018-07-21T04:10:50.025Z,51.77
2018-07-21T04:11:50.082Z,51.65
2018-07-21T04:12:50.134Z,51.87
2018-07-21T04:13:50.103Z,51.75
2018-07-21T04:14:50.202Z,52.06
2018-07-21T04:15:50.223Z,51.75
2018-07-21T04:16:50.172Z,52.33
2018-07-21T04:17:50.128Z,52.52
2018-07-21T04:18:50.130Z,52.71
2018-07-21T04:19:50.231Z,52.13
2018-07-21T04:20:50.169Z,52.06
2018-07-21T04:21:50.236Z,52.16
2018-07-21T04:22:50.340Z,52.71
2018-07-21T04:23:50.204Z,53.03
2018-07-21T04:24:50.267Z,52.16
2018-07-21T04:25:50.269Z,51.68
2018-07-21T04:26:50.336Z,52.25
2018-07-21T04:27:50.273Z,51.87
2018-07-21T04:28:50.292Z,52.55
2018-07-21T04:29:50.307Z,52.06
2018-07-21T04:30:50.361Z,52.55
2018-07-21T04:31:50.346Z,52.16
2018-07-21T04:32:50.336Z,52.64
2018-07-21T04:33:50.419Z,52.73
2018-07-21T04:34:50.439Z,53.03
2018-07-21T04:35:50.539Z,52.16
2018-07-21T04:36:50.543Z,52.35
2018-07-21T04:37:50.469Z,52.06
2018-07-21T04:38:50.493Z,52.64
2018-07-21T04:39:50.446Z,52.73
2018-07-21T04:40:50.474Z,52.45
2018-07-21T04:41:50.617Z,52.25
2018-07-21T04:42:50.593Z,52.83
2018-07-21T04:43:50.730Z,52.19
2018-07-21T04:44:50.546Z,52.19
2018-07-21T04:45:50.546Z,52.28
2018-07-21T04:46:50.553Z,52.09
2018-07-21T04:47:50.531Z,51.70
2018-07-21T04:48:50.536Z,52.28
2018-07-21T04:49:50.658Z,53.15
2018-07-21T04:50:50.671Z,52.67
2018-07-21T04:51:50.640Z,52.47
2018-07-21T04:52:50.647Z,52.19
2018-07-21T04:53:50.713Z,52.98
2018-07-21T04:54:50.672Z,52.59
2018-07-21T04:55:50.694Z,52.40
2018-07-21T04:56:50.693Z,52.79
2018-07-21T04:57:50.775Z,51.63
2018-07-21T04:58:50.716Z,50.86
2018-07-21T04:59:50.706Z,50.96
2018-07-21T05:00:50.792Z,50.76
2018-07-21T05:01:50.740Z,50.38
2018-07-21T05:02:50.741Z,49.99
2018-07-21T05:03:50.854Z,50.09
2018-07-21T05:04:50.779Z,50.18
2018-07-21T05:05:50.788Z,50.38
2018-07-21T05:06:50.808Z,50.09
2018-07-21T05:07:50.868Z,49.82
2018-07-21T05:08:50.927Z,50.11
2018-07-21T05:09:50.971Z,49.82
2018-07-21T05:10:50.882Z,49.92
2018-07-21T05:11:50.918Z,49.53
2018-07-21T05:12:50.939Z,49.73
2018-07-21T05:13:50.929Z,50.31
2018-07-21T05:14:50.965Z,49.55
2018-07-21T05:15:50.924Z,49.07
2018-07-21T05:16:50.955Z,48.69
2018-07-21T05:17:50.969Z,49.07
2018-07-21T05:18:50.968Z,48.88
2018-07-21T05:19:50.960Z,48.49
2018-07-21T05:20:51.079Z,48.69
2018-07-21T05:21:51.013Z,47.91
2018-07-21T05:22:51.032Z,48.59
2018-07-21T05:23:51.121Z,48.81
2018-07-21T05:24:51.076Z,48.03
2018-07-21T05:25:51.180Z,47.74
2018-07-21T05:26:51.096Z,47.55
2018-07-21T05:27:51.092Z,47.28
2018-07-21T05:28:51.193Z,47.19
2018-07-21T05:29:51.193Z,47.09
2018-07-21T05:30:51.165Z,47.38
2018-07-21T05:31:51.149Z,46.90
2018-07-21T05:32:51.184Z,46.42
2018-07-21T05:33:51.196Z,46.15
2018-07-21T05:34:51.213Z,45.76
2018-07-21T05:35:51.184Z,46.34
2018-07-21T05:36:51.265Z,46.25
2018-07-21T05:37:51.237Z,45.76
2018-07-21T05:38:51.271Z,45.78
2018-07-21T05:39:51.285Z,45.59
2018-07-21T05:40:51.300Z,45.30
2018-07-21T05:41:51.302Z,45.30
2018-07-21T05:42:51.313Z,45.59
2018-07-21T05:43:51.322Z,45.22
2018-07-21T05:44:51.357Z,45.22
2018-07-21T05:45:51.416Z,45.32
2018-07-21T05:46:51.385Z,45.51
2018-07-21T05:47:51.443Z,45.03
2018-07-21T05:48:51.392Z,44.54
2018-07-21T05:49:51.418Z,43.29
2018-07-21T05:50:51.484Z,43.58
2018-07-21T05:51:51.445Z,43.65
2018-07-21T05:52:51.498Z,43.95
2018-07-21T05:53:51.483Z,44.04
2018-07-21T05:54:51.490Z,43.65
2018-07-21T05:55:51.533Z,43.82
2018-07-21T05:56:51.535Z,44.04
2018-07-21T05:57:51.561Z,44.13
2018-07-21T05:58:51.616Z,43.92
2018-07-21T05:59:51.580Z,44.02
2018-07-21T06:00:51.581Z,44.50
2018-07-21T06:01:51.613Z,44.38
2018-07-21T06:02:52.699Z,44.57
2018-07-21T06:03:52.466Z,44.96
2018-07-21T06:04:52.268Z,45.25
2018-07-21T06:05:51.801Z,45.64
2018-07-21T06:06:51.686Z,46.32
2018-07-21T06:07:51.722Z,45.54
2018-07-21T06:08:51.832Z,45.45
2018-07-21T06:09:51.798Z,45.83
2018-07-21T06:10:51.800Z,45.64
2018-07-21T06:11:51.789Z,45.83
2018-07-21T06:12:51.781Z,46.03
2018-07-21T06:13:51.839Z,45.83
2018-07-21T06:14:51.809Z,45.74
2018-07-21T06:15:51.921Z,45.72
2018-07-21T06:16:51.980Z,45.23
2018-07-21T06:17:51.872Z,45.42
2018-07-21T06:18:51.922Z,45.40
2018-07-21T06:19:51.929Z,46.17
2018-07-21T06:20:51.966Z,46.37
2018-07-21T06:21:51.950Z,46.75
2018-07-21T06:22:51.926Z,46.49
2018-07-21T06:23:52.033Z,45.79
2018-07-21T06:24:52.090Z,45.89
2018-07-21T06:25:52.021Z,46.00
2018-07-21T06:26:52.083Z,45.31
2018-07-21T06:27:52.041Z,45.21
2018-07-21T06:28:52.047Z,45.98
2018-07-21T06:29:52.044Z,46.47
2018-07-21T06:30:52.127Z,46.47
2018-07-21T06:31:52.148Z,46.17
2018-07-21T06:32:52.077Z,46.06
2018-07-21T06:33:52.221Z,46.54
2018-07-21T06:34:52.113Z,46.37
2018-07-21T06:35:52.172Z,46.83
2018-07-21T06:36:52.241Z,46.75
2018-07-21T06:37:52.186Z,47.50
2018-07-21T06:38:52.261Z,47.33
2018-07-21T06:39:52.183Z,47.24
2018-07-21T06:40:52.285Z,47.80
2018-07-21T06:41:52.246Z,47.72
2018-07-21T06:42:52.343Z,47.63
2018-07-21T06:43:52.277Z,47.43
2018-07-21T06:44:52.290Z,47.43
2018-07-21T06:45:52.340Z,47.53
2018-07-21T06:46:52.412Z,47.05
2018-07-21T06:47:52.348Z,47.43
2018-07-21T06:48:52.351Z,46.56
2018-07-21T06:49:52.336Z,46.27
2018-07-21T06:50:52.457Z,46.47
2018-07-21T06:51:52.378Z,46.66
2018-07-21T06:52:52.488Z,46.66
2018-07-21T06:53:52.432Z,47.05
2018-07-21T06:54:52.457Z,46.17
2018-07-21T06:55:52.413Z,46.17
2018-07-21T06:56:52.605Z,46.95
2018-07-21T06:57:52.462Z,48.21
2018-07-21T06:58:52.574Z,47.33
2018-07-21T06:59:52.484Z,47.43
2018-07-21T07:00:52.579Z,47.24
2018-07-21T07:01:52.610Z,47.53
2018-07-21T07:02:52.527Z,48.01
2018-07-21T07:03:52.789Z,47.91
2018-07-21T07:04:52.618Z,47.63
2018-07-21T07:05:52.584Z,47.91
2018-07-21T07:06:52.576Z,47.72
2018-07-21T07:07:52.648Z,48.88
2018-07-21T07:08:52.588Z,47.72
2018-07-21T07:09:52.737Z,47.74
2018-07-21T07:10:52.721Z,48.03
2018-07-21T07:11:52.662Z,47.94
2018-07-21T07:12:52.665Z,47.36
2018-07-21T07:13:52.677Z,47.36
2018-07-21T07:14:52.722Z,47.16
2018-07-21T07:15:52.744Z,47.55
2018-07-21T07:16:52.753Z,47.07
2018-07-21T07:17:52.838Z,47.65
2018-07-21T07:18:52.754Z,46.39
2018-07-21T07:19:52.792Z,46.00
2018-07-21T07:20:52.831Z,45.42
2018-07-21T07:21:52.867Z,46.20
2018-07-21T07:22:52.828Z,46.20
2018-07-21T07:23:52.900Z,46.30
2018-07-21T07:24:52.854Z,46.58
2018-07-21T07:25:52.852Z,46.10
2018-07-21T07:26:52.900Z,46.20
2018-07-21T07:27:52.915Z,46.39
2018-07-21T07:28:52.988Z,46.20
2018-07-21T07:29:53.022Z,46.80
2018-07-21T07:30:52.953Z,46.00
2018-07-21T07:31:53.182Z,46.20
2018-07-21T07:32:52.997Z,46.39
2018-07-21T07:33:52.993Z,47.58
2018-07-21T07:34:53.086Z,47.38
2018-07-21T07:35:53.012Z,46.61
2018-07-21T07:36:53.069Z,45.64
2018-07-21T07:37:53.057Z,45.42
2018-07-21T07:38:53.098Z,45.23
2018-07-21T07:39:53.116Z,45.14
2018-07-21T07:40:53.107Z,45.42
2018-07-21T07:41:53.093Z,45.89
2018-07-21T07:42:53.121Z,46.20
2018-07-21T07:43:53.117Z,45.91
2018-07-21T07:44:53.150Z,45.72
2018-07-21T07:45:53.223Z,45.52
2018-07-21T07:46:53.179Z,45.72
2018-07-21T07:47:53.206Z,45.04
2018-07-21T07:48:53.204Z,44.17
2018-07-21T07:49:53.253Z,44.56
2018-07-21T07:50:53.292Z,43.88
2018-07-21T07:51:53.331Z,43.98
2018-07-21T07:52:53.237Z,45.23
2018-07-21T07:53:53.384Z,45.52
2018-07-21T07:54:53.322Z,44.84
2018-07-21T07:55:53.443Z,44.65
2018-07-21T07:56:53.430Z,45.04
2018-07-21T07:57:53.531Z,45.14
2018-07-21T07:58:54.126Z,44.36
2018-07-21T07:59:53.765Z,44.36
2018-07-21T08:00:53.614Z,43.40
2018-07-21T08:01:53.471Z,43.88
2018-07-21T08:02:53.407Z,42.82
2018-07-21T08:03:53.463Z,43.49
2018-07-21T08:04:53.438Z,43.68
2018-07-21T08:05:53.675Z,44.46
2018-07-21T08:06:53.574Z,43.88
2018-07-21T08:07:53.488Z,43.40
2018-07-21T08:08:53.539Z,43.78
2018-07-21T08:09:53.520Z,43.57
2018-07-21T08:10:53.577Z,43.98
2018-07-21T08:11:53.552Z,43.68
2018-07-21T08:12:53.638Z,43.49
2018-07-21T08:13:53.580Z,42.72
2018-07-21T08:14:53.701Z,42.62
2018-07-21T08:15:53.595Z,42.91
2018-07-21T08:16:53.642Z,43.59
2018-07-21T08:17:53.598Z,43.49
2018-07-21T08:18:53.636Z,43.30
2018-07-21T08:19:53.657Z,43.98
2018-07-21T08:20:53.674Z,43.30
2018-07-21T08:21:53.767Z,43.40
2018-07-21T08:22:53.671Z,43.40
2018-07-21T08:23:53.714Z,43.68
2018-07-21T08:24:53.738Z,43.30
2018-07-21T08:25:53.807Z,43.49
2018-07-21T08:26:53.785Z,43.41
2018-07-21T08:27:53.790Z,41.94
2018-07-21T08:28:53.850Z,42.93
2018-07-21T08:29:53.882Z,42.55
2018-07-21T08:30:53.813Z,42.45
2018-07-21T08:31:53.824Z,42.45
2018-07-21T08:32:53.825Z,42.35
2018-07-21T08:33:53.852Z,41.58
2018-07-21T08:34:53.883Z,41.09
2018-07-21T08:35:53.888Z,41.09
2018-07-21T08:36:54.021Z,41.29
2018-07-21T08:37:53.941Z,41.19
2018-07-21T08:38:53.995Z,41.17
2018-07-21T08:39:53.969Z,41.08
2018-07-21T08:40:54.209Z,41.77
2018-07-21T08:41:57.143Z,42.16
2018-07-21T08:42:53.987Z,41.94
2018-07-21T08:43:54.027Z,41.75
2018-07-21T08:44:54.064Z,41.87
2018-07-21T08:45:54.043Z,40.98
2018-07-21T08:46:54.092Z,41.09
2018-07-21T08:47:54.019Z,41.87
2018-07-21T08:48:54.111Z,42.35
2018-07-21T08:49:54.130Z,41.39
2018-07-21T08:50:54.198Z,42.07
2018-07-21T08:51:54.099Z,41.19
2018-07-21T08:52:54.124Z,41.29
2018-07-21T08:53:54.166Z,41.77
2018-07-21T08:54:54.168Z,42.16
2018-07-21T08:55:54.195Z,42.93
2018-07-21T08:56:54.197Z,41.87
2018-07-21T08:57:54.171Z,42.28
2018-07-21T08:58:54.194Z,42.37
2018-07-21T08:59:54.216Z,42.28
2018-07-21T09:00:54.284Z,41.48
2018-07-21T09:01:54.267Z,39.94
2018-07-21T09:02:54.289Z,39.36
2018-07-21T09:03:54.263Z,40.23
2018-07-21T09:04:54.529Z,40.42
2018-07-21T09:05:54.367Z,39.84
2018-07-21T09:06:54.399Z,39.55
2018-07-21T09:07:54.409Z,40.42
2018-07-21T09:08:54.380Z,40.25
2018-07-21T09:09:54.364Z,40.83
2018-07-21T09:10:54.413Z,39.86
2018-07-21T09:11:54.427Z,40.63
2018-07-21T09:12:54.436Z,40.83
2018-07-21T09:13:54.473Z,41.41
2018-07-21T09:14:54.509Z,40.83
2018-07-21T09:15:54.572Z,40.25
2018-07-21T09:16:54.480Z,40.44
2018-07-21T09:17:54.498Z,40.44
2018-07-21T09:18:54.671Z,40.63
2018-07-21T09:19:54.614Z,40.25
2018-07-21T09:20:54.653Z,40.44
2018-07-21T09:21:54.562Z,40.44
2018-07-21T09:22:54.591Z,40.34
2018-07-21T09:23:54.562Z,40.92
2018-07-21T09:24:54.635Z,41.02
2018-07-21T09:25:54.606Z,40.83
2018-07-21T09:26:54.667Z,40.92
2018-07-21T09:27:54.616Z,40.25
2018-07-21T09:28:54.684Z,40.53
2018-07-21T09:29:54.769Z,39.18
2018-07-21T09:30:54.794Z,38.99
2018-07-21T09:31:54.802Z,39.28
2018-07-21T09:32:54.736Z,39.86
2018-07-21T09:33:54.721Z,39.47
2018-07-21T09:34:54.733Z,38.70
2018-07-21T09:35:54.734Z,38.99
2018-07-21T09:36:54.827Z,39.49
2018-07-21T09:37:54.807Z,39.49
2018-07-21T09:38:56.651Z,38.70
2018-07-21T09:39:54.959Z,39.59
2018-07-21T09:40:54.841Z,38.91
2018-07-21T09:41:54.889Z,39.11
2018-07-21T09:42:54.860Z,39.29
2018-07-21T09:43:54.999Z,39.69
2018-07-21T09:44:54.938Z,39.29
2018-07-21T09:45:55.021Z,38.53
2018-07-21T09:46:55.033Z,39.59
2018-07-21T09:47:54.953Z,38.23
2018-07-21T09:48:55.197Z,38.81
2018-07-21T09:49:55.087Z,39.29
2018-07-21T09:50:54.994Z,38.53
2018-07-21T09:51:55.006Z,38.33
2018-07-21T09:52:54.994Z,38.62
2018-07-21T09:53:55.130Z,38.81
2018-07-21T09:54:55.105Z,39.49
2018-07-21T09:55:55.491Z,39.01
2018-07-21T09:56:55.196Z,39.59
2018-07-21T09:57:55.178Z,39.03
2018-07-21T09:58:55.075Z,38.81
2018-07-21T09:59:55.148Z,38.71
2018-07-21T10:00:55.135Z,38.81
2018-07-21T10:01:55.193Z,38.81
2018-07-21T10:02:55.137Z,38.91
2018-07-21T10:03:55.186Z,38.81
2018-07-21T10:04:55.211Z,38.73
2018-07-21T10:05:55.198Z,39.12
2018-07-21T10:06:55.234Z,38.15
2018-07-21T10:07:55.205Z,38.35
2018-07-21T10:08:55.255Z,38.35
2018-07-21T10:09:55.287Z,39.61
2018-07-21T10:10:55.276Z,39.22
2018-07-21T10:11:55.263Z,38.64
2018-07-21T10:12:55.288Z,39.70
2018-07-21T10:13:55.316Z,38.54
2018-07-21T10:14:55.363Z,38.35
2018-07-21T10:15:55.377Z,37.87
2018-07-21T10:16:55.391Z,37.09
2018-07-21T10:17:55.356Z,37.67
2018-07-21T10:18:55.396Z,36.60
2018-07-21T10:19:55.398Z,36.60
2018-07-21T10:20:55.429Z,35.73
2018-07-21T10:21:55.647Z,36.90
2018-07-21T10:22:55.449Z,36.90
2018-07-21T10:23:55.522Z,37.19
2018-07-21T10:24:55.688Z,37.09
2018-07-21T10:25:55.528Z,38.15
2018-07-21T10:26:55.512Z,38.93
2018-07-21T10:27:55.593Z,37.19
2018-07-21T10:28:55.559Z,37.09
2018-07-21T10:29:55.568Z,37.07
2018-07-21T10:30:55.597Z,37.48
2018-07-21T10:31:55.720Z,38.25
2018-07-21T10:32:55.630Z,37.09
2018-07-21T10:33:55.801Z,37.09
2018-07-21T10:34:55.697Z,38.06
2018-07-21T10:35:55.821Z,38.15
2018-07-21T10:36:55.689Z,38.06
2018-07-21T10:37:55.695Z,37.67
2018-07-21T10:38:55.726Z,37.67
2018-07-21T10:39:55.804Z,38.35
2018-07-21T10:40:55.772Z,37.96
2018-07-21T10:41:55.769Z,38.93
2018-07-21T10:42:55.752Z,37.96
2018-07-21T10:43:55.810Z,37.19
2018-07-21T10:44:55.827Z,37.67
2018-07-21T10:45:55.841Z,37.96
2018-07-21T10:46:55.934Z,37.67
2018-07-21T10:47:55.857Z,37.19
2018-07-21T10:48:55.957Z,38.45
2018-07-21T10:49:55.896Z,38.45
2018-07-21T10:50:55.903Z,37.87
2018-07-21T10:51:55.976Z,37.96
2018-07-21T10:52:55.994Z,38.06
2018-07-21T10:53:55.924Z,38.56
2018-07-21T10:54:56.124Z,39.32
2018-07-21T10:55:56.219Z,39.82
2018-07-21T10:56:56.017Z,38.46
2018-07-21T10:57:56.016Z,39.24
2018-07-21T10:58:56.065Z,39.34
2018-07-21T10:59:56.045Z,39.14
2018-07-21T11:00:56.027Z,39.14
2018-07-21T11:01:56.418Z,39.72
2018-07-21T11:02:56.326Z,38.85
2018-07-21T11:03:56.135Z,37.30
2018-07-21T11:04:56.086Z,38.27
2018-07-21T11:05:56.143Z,38.76
2018-07-21T11:06:56.103Z,38.85
2018-07-21T11:07:56.485Z,38.76
2018-07-21T11:08:56.121Z,36.72
2018-07-21T11:09:56.151Z,38.07
2018-07-21T11:10:56.246Z,37.69
2018-07-21T11:11:56.198Z,38.95
2018-07-21T11:12:56.284Z,36.91
2018-07-21T11:13:56.293Z,37.21
2018-07-21T11:14:56.503Z,37.21
2018-07-21T11:15:56.305Z,37.01
2018-07-21T11:16:56.363Z,37.40
2018-07-21T11:17:56.392Z,38.85
2018-07-21T11:18:56.309Z,38.17
2018-07-21T11:19:56.300Z,38.78
2018-07-21T11:20:56.329Z,36.91
2018-07-21T11:21:56.440Z,37.21
2018-07-21T11:22:56.359Z,37.01
2018-07-21T11:23:56.376Z,37.11
2018-07-21T11:24:56.389Z,37.01
2018-07-21T11:25:56.419Z,37.69
2018-07-21T11:26:56.446Z,38.00
2018-07-21T11:27:56.480Z,37.51
2018-07-21T11:28:56.486Z,36.91
2018-07-21T11:29:56.485Z,37.79
2018-07-21T11:30:56.493Z,36.91
2018-07-21T11:31:56.639Z,37.01
2018-07-21T11:32:56.575Z,37.21
2018-07-21T11:33:56.539Z,36.91
2018-07-21T11:34:56.566Z,36.91
2018-07-21T11:35:56.770Z,38.27
2018-07-21T11:36:56.628Z,38.46
2018-07-21T11:37:56.648Z,38.48
2018-07-21T11:38:56.688Z,38.29
2018-07-21T11:39:56.628Z,38.19
2018-07-21T11:40:56.698Z,38.09
2018-07-21T11:41:56.801Z,37.41
2018-07-21T11:42:56.723Z,38.48
2018-07-21T11:43:56.732Z,37.81
2018-07-21T11:44:56.768Z,38.58
2018-07-21T11:45:56.743Z,37.90
2018-07-21T11:46:56.755Z,37.41
2018-07-21T11:47:56.783Z,38.09
2018-07-21T11:48:56.819Z,38.46
2018-07-21T11:49:56.943Z,38.58
2018-07-21T11:50:56.826Z,38.58
2018-07-21T11:51:56.912Z,38.39
2018-07-21T11:52:56.853Z,38.78
2018-07-21T11:53:56.901Z,38.19
2018-07-21T11:54:56.898Z,38.39
2018-07-21T11:55:56.941Z,37.81
2018-07-21T11:56:56.884Z,38.68
2018-07-21T11:57:56.936Z,38.87
2018-07-21T11:58:56.982Z,37.41
2018-07-21T11:59:56.942Z,37.71
2018-07-21T12:00:57.059Z,37.81
2018-07-21T12:01:57.031Z,38.48
2018-07-21T12:02:57.028Z,39.08
2018-07-21T12:03:57.018Z,39.18
2018-07-21T12:04:57.006Z,38.79
2018-07-21T12:05:57.091Z,38.12
2018-07-21T12:06:57.200Z,38.31
2018-07-21T12:07:57.085Z,37.23
2018-07-21T12:08:57.168Z,37.32
2018-07-21T12:09:57.120Z,37.34
2018-07-21T12:10:57.151Z,36.83
2018-07-21T12:11:57.217Z,36.74
2018-07-21T12:12:57.191Z,37.53
2018-07-21T12:13:57.189Z,37.73
2018-07-21T12:14:57.200Z,37.82
2018-07-21T12:15:57.188Z,38.99
2018-07-21T12:16:57.246Z,38.99
2018-07-21T12:17:57.227Z,39.86
2018-07-21T12:18:57.265Z,38.50
2018-07-21T12:19:57.263Z,38.40
2018-07-21T12:20:57.374Z,38.12
2018-07-21T12:21:57.304Z,38.60
2018-07-21T12:22:57.319Z,38.89
2018-07-21T12:23:57.316Z,38.81
2018-07-21T12:24:57.400Z,38.40
2018-07-21T12:25:57.351Z,38.42
2018-07-21T12:26:57.341Z,38.04
2018-07-21T12:27:57.419Z,37.92
2018-07-21T12:28:57.409Z,38.32
2018-07-21T12:29:57.448Z,39.01
2018-07-21T12:30:57.533Z,38.52
2018-07-21T12:31:57.556Z,36.76
2018-07-21T12:32:58.681Z,38.50
2018-07-21T12:33:57.548Z,38.31
2018-07-21T12:34:57.671Z,38.02
2018-07-21T12:35:57.573Z,38.40
2018-07-21T12:36:57.508Z,38.99
2018-07-21T12:37:57.530Z,38.12
2018-07-21T12:38:57.620Z,38.31
2018-07-21T12:39:57.708Z,38.52
2018-07-21T12:40:57.640Z,37.73
2018-07-21T12:41:57.707Z,37.82
2018-07-21T12:42:57.639Z,37.43
2018-07-21T12:43:57.672Z,36.85
2018-07-21T12:44:58.005Z,36.85
2018-07-21T12:45:57.684Z,36.83
2018-07-21T12:46:57.720Z,37.32
2018-07-21T12:47:57.791Z,37.82
2018-07-21T12:48:57.752Z,38.50
2018-07-21T12:49:57.756Z,38.40
2018-07-21T12:50:57.770Z,38.50
2018-07-21T12:51:57.770Z,37.92
2018-07-21T12:52:57.828Z,37.63